Detroit, Michigan
Traffic Map
Current Weather Conditions
Detroit, Michigan
Broken Clouds
Broken Clouds
15°
Feels Like: 15°
Wind Chill: 15° Ceiling: 7500
Heat Index: 15° Visibility: 15mi
Dew Point: 11° Wind: 7mph
Humidity: 77% Direction: 260° (W)
Pressure: 30in Gusts: 0mph
Raw Report DataCYQG 251200Z 26006KT 15SM BKN075 15/11 A3000 RMK AC7 INTMT -RA SLP158 DENSITY ALT 700FT
Traffic Incident Summary
Active as of:
Severity:
Category:
InformationThere was an issue retrieving the traffic information for this location. Please try a different location or try again shortly.
Advertisements
Track Severe Weather on mobile